This is the latest recevied weather packets stored in our database for station/object K4DFD-13. If no packets are shown the sender has not sent any weather packets the latest 10 day(s).
| Time | Temp. | Humidity | Pressure | Rain* | Wind** | Luminosity | Snow |
|---|---|---|---|---|---|---|---|
| 1777148225 | 17.22° C | 92% | 1011.9 hPa | 0.25 mm | - | - | - |
| 1777147925 | 17.22° C | 91% | 1011.9 hPa | 0.25 mm | - | - | - |
| 1777147625 | 17.22° C | 90% | 1012.1 hPa | 1.02 mm | - | - | - |
| 1777147324 | 17.22° C | 92% | 1012.1 hPa | 1.02 mm | - | - | - |
| 1777147024 | 17.22° C | 90% | 1012.2 hPa | 1.02 mm | - | - | - |
| 1777146723 | 17.22° C | 89% | 1012.1 hPa | 1.02 mm | - | - | - |
| 1777146423 | 17.22° C | 86% | 1011.8 hPa | 3.3 mm | - | - | - |
| 1777146123 | 17.22° C | 84% | 1011.6 hPa | 3.3 mm | - | - | - |
| 1777145822 | 17.22° C | 87% | 1011.6 hPa | 3.3 mm | - | - | - |
| 1777145522 | 17.22° C | 88% | 1011.5 hPa | 3.3 mm | - | - | - |
| 1777145222 | 16.67° C | 86% | 1011.6 hPa | 3.3 mm | - | - | - |
| 1777144921 | 17.22° C | 84% | 1011.7 hPa | 3.3 mm | - | - | - |
| 1777144621 | 17.22° C | 83% | 1011.6 hPa | 3.3 mm | - | - | - |
| 1777144321 | 17.78° C | 83% | 1011.6 hPa | 3.3 mm | - | - | - |
| 1777144020 | 17.78° C | 81% | 1011.6 hPa | 5.84 mm | - | - | - |
| 1777143720 | 18.33° C | 83% | 1011.8 hPa | 2.79 mm | - | - | - |
| 1777143419 | 19.44° C | 88% | 1011.6 hPa | 0 mm | - | - | - |
| 1777143119 | 20° C | 84% | 1011.6 hPa | 0 mm | - | - | - |
| 1777142819 | 20.56° C | 78% | 1011.3 hPa | 0 mm | - | - | - |
| 1777142518 | 21.11° C | 77% | 1011.2 hPa | 0 mm | - | - | - |
| 1777142218 | 21.67° C | 66% | 1011.1 hPa | 0 mm | - | - | - |
| 1777141918 | 21.67° C | 62% | 1011 hPa | 0 mm | - | - | - |
| 1777141617 | 21.67° C | 62% | 1010.7 hPa | 0 mm | - | - | - |
| 1777141317 | 21.67° C | 62% | 1010.8 hPa | 0 mm | - | - | - |
| 1777141017 | 21.67° C | 63% | 1010.8 hPa | 0 mm | - | - | - |
* Rain latest hour (hover to see other rain measurements)
** Current wind speed in m/s (hover to see current wind gust speed)